sensor_id;sensor_type;location;lat;lon;timestamp;pressure;altitude;pressure_sealevel;temperature;humidity
2681;BME280;1350;42.134;24.708;2023-07-30T00:00:59;99062.81;;;24.91;64.50
2681;BME280;1350;42.134;24.708;2023-07-30T00:03:25;99058.31;;;24.83;65.29
2681;BME280;1350;42.134;24.708;2023-07-30T00:05:53;99056.97;;;24.79;66.42
2681;BME280;1350;42.134;24.708;2023-07-30T00:08:20;99050.38;;;24.51;67.91
2681;BME280;1350;42.134;24.708;2023-07-30T00:10:47;99051.34;;;24.66;67.36
2681;BME280;1350;42.134;24.708;2023-07-30T00:13:15;99049.09;;;24.69;67.01
2681;BME280;1350;42.134;24.708;2023-07-30T00:15:42;99048.28;;;24.83;66.38
2681;BME280;1350;42.134;24.708;2023-07-30T00:18:08;99049.91;;;24.92;65.59
2681;BME280;1350;42.134;24.708;2023-07-30T00:20:35;99056.06;;;24.86;66.86
2681;BME280;1350;42.134;24.708;2023-07-30T00:23:02;99056.72;;;24.88;66.41
2681;BME280;1350;42.134;24.708;2023-07-30T00:25:29;99054.19;;;24.87;67.40
2681;BME280;1350;42.134;24.708;2023-07-30T00:27:55;99052.53;;;24.86;67.87
2681;BME280;1350;42.134;24.708;2023-07-30T00:30:24;99054.94;;;24.81;68.74
2681;BME280;1350;42.134;24.708;2023-07-30T00:32:50;99050.38;;;24.81;68.83
2681;BME280;1350;42.134;24.708;2023-07-30T00:35:17;99055.31;;;24.78;69.09
2681;BME280;1350;42.134;24.708;2023-07-30T00:37:44;99050.31;;;24.67;69.49
2681;BME280;1350;42.134;24.708;2023-07-30T00:40:12;99055.94;;;24.35;69.39
2681;BME280;1350;42.134;24.708;2023-07-30T00:42:38;99048.50;;;24.37;68.17
2681;BME280;1350;42.134;24.708;2023-07-30T00:45:06;99048.53;;;24.51;66.87
2681;BME280;1350;42.134;24.708;2023-07-30T00:47:35;99052.81;;;24.46;66.24
2681;BME280;1350;42.134;24.708;2023-07-30T00:50:03;99051.44;;;24.50;65.23
2681;BME280;1350;42.134;24.708;2023-07-30T00:52:30;99049.94;;;24.47;65.23
2681;BME280;1350;42.134;24.708;2023-07-30T00:54:57;99053.28;;;24.49;65.50
2681;BME280;1350;42.134;24.708;2023-07-30T00:57:25;99052.28;;;24.50;66.44
2681;BME280;1350;42.134;24.708;2023-07-30T00:59:52;99046.06;;;24.42;66.70
2681;BME280;1350;42.134;24.708;2023-07-30T01:02:21;99049.84;;;24.10;67.98
2681;BME280;1350;42.134;24.708;2023-07-30T01:04:49;99046.28;;;24.10;68.34
2681;BME280;1350;42.134;24.708;2023-07-30T01:07:17;99058.00;;;23.94;68.38
2681;BME280;1350;42.134;24.708;2023-07-30T01:09:43;99062.59;;;23.94;68.42
2681;BME280;1350;42.134;24.708;2023-07-30T01:12:11;99056.72;;;23.82;69.48
2681;BME280;1350;42.134;24.708;2023-07-30T01:14:38;99059.41;;;23.90;69.86
2681;BME280;1350;42.134;24.708;2023-07-30T01:17:06;99068.84;;;24.02;69.98
2681;BME280;1350;42.134;24.708;2023-07-30T01:19:32;99060.84;;;24.09;70.19
2681;BME280;1350;42.134;24.708;2023-07-30T01:22:00;99058.47;;;24.14;69.54
2681;BME280;1350;42.134;24.708;2023-07-30T01:24:27;99057.94;;;24.18;69.80
2681;BME280;1350;42.134;24.708;2023-07-30T01:26:56;99050.78;;;24.17;69.21
2681;BME280;1350;42.134;24.708;2023-07-30T01:29:27;99054.41;;;24.10;69.36
2681;BME280;1350;42.134;24.708;2023-07-30T01:31:56;99054.03;;;24.13;69.75
2681;BME280;1350;42.134;24.708;2023-07-30T01:34:24;99056.28;;;24.09;69.93
2681;BME280;1350;42.134;24.708;2023-07-30T01:36:53;99062.13;;;23.82;71.99
2681;BME280;1350;42.134;24.708;2023-07-30T01:39:23;99066.59;;;23.67;72.58
2681;BME280;1350;42.134;24.708;2023-07-30T01:41:50;99068.63;;;23.73;72.54
2681;BME280;1350;42.134;24.708;2023-07-30T01:44:16;99068.41;;;23.83;72.54
2681;BME280;1350;42.134;24.708;2023-07-30T01:46:43;99055.41;;;23.78;72.75
2681;BME280;1350;42.134;24.708;2023-07-30T01:49:10;99068.19;;;23.92;71.93
2681;BME280;1350;42.134;24.708;2023-07-30T01:51:36;99064.34;;;23.79;72.81
2681;BME280;1350;42.134;24.708;2023-07-30T01:54:03;99072.53;;;23.71;73.73
2681;BME280;1350;42.134;24.708;2023-07-30T01:56:31;99073.41;;;23.63;74.32
2681;BME280;1350;42.134;24.708;2023-07-30T01:58:58;99076.16;;;23.39;76.16
2681;BME280;1350;42.134;24.708;2023-07-30T02:01:25;99068.38;;;23.44;77.13
2681;BME280;1350;42.134;24.708;2023-07-30T02:03:51;99074.94;;;23.50;78.21
2681;BME280;1350;42.134;24.708;2023-07-30T02:06:18;99071.41;;;23.49;77.95
2681;BME280;1350;42.134;24.708;2023-07-30T02:08:45;99072.41;;;23.48;78.05
2681;BME280;1350;42.134;24.708;2023-07-30T02:11:11;99076.31;;;23.54;77.41
2681;BME280;1350;42.134;24.708;2023-07-30T02:13:39;99073.09;;;23.50;78.30
2681;BME280;1350;42.134;24.708;2023-07-30T02:16:07;99076.69;;;23.43;79.10
2681;BME280;1350;42.134;24.708;2023-07-30T02:18:34;99080.94;;;23.13;81.18
2681;BME280;1350;42.134;24.708;2023-07-30T02:21:01;99068.09;;;23.15;81.32
2681;BME280;1350;42.134;24.708;2023-07-30T02:23:28;99074.81;;;23.19;81.76
2681;BME280;1350;42.134;24.708;2023-07-30T02:25:54;99081.25;;;23.18;82.04
2681;BME280;1350;42.134;24.708;2023-07-30T02:28:21;99083.66;;;22.97;83.78
2681;BME280;1350;42.134;24.708;2023-07-30T02:30:49;99081.31;;;22.94;84.68
2681;BME280;1350;42.134;24.708;2023-07-30T02:33:16;99084.84;;;23.02;84.50
2681;BME280;1350;42.134;24.708;2023-07-30T02:35:43;99087.03;;;23.15;84.44
2681;BME280;1350;42.134;24.708;2023-07-30T02:38:09;99090.25;;;23.10;85.41
2681;BME280;1350;42.134;24.708;2023-07-30T02:40:36;99088.41;;;23.11;85.41
2681;BME280;1350;42.134;24.708;2023-07-30T02:43:03;99087.03;;;23.07;86.12
2681;BME280;1350;42.134;24.708;2023-07-30T02:45:30;99094.97;;;23.08;84.58
2681;BME280;1350;42.134;24.708;2023-07-30T02:47:58;99098.72;;;22.75;84.84
2681;BME280;1350;42.134;24.708;2023-07-30T02:50:25;99105.47;;;22.71;85.07
2681;BME280;1350;42.134;24.708;2023-07-30T02:52:51;99103.28;;;22.83;84.90
2681;BME280;1350;42.134;24.708;2023-07-30T02:55:18;99098.03;;;22.73;86.19
2681;BME280;1350;42.134;24.708;2023-07-30T02:57:45;99093.13;;;22.69;85.89
2681;BME280;1350;42.134;24.708;2023-07-30T03:00:12;99098.53;;;22.61;86.46
2681;BME280;1350;42.134;24.708;2023-07-30T03:02:39;99099.72;;;22.58;87.28
2681;BME280;1350;42.134;24.708;2023-07-30T03:05:08;99111.84;;;22.46;89.66
2681;BME280;1350;42.134;24.708;2023-07-30T03:07:35;99113.31;;;22.41;90.93
2681;BME280;1350;42.134;24.708;2023-07-30T03:10:02;99114.91;;;22.51;91.24
2681;BME280;1350;42.134;24.708;2023-07-30T03:12:29;99110.88;;;22.55;90.74
2681;BME280;1350;42.134;24.708;2023-07-30T03:14:55;99119.13;;;22.54;90.14
2681;BME280;1350;42.134;24.708;2023-07-30T03:17:22;99122.19;;;22.51;88.53
2681;BME280;1350;42.134;24.708;2023-07-30T03:19:49;99131.19;;;22.26;89.77
2681;BME280;1350;42.134;24.708;2023-07-30T03:22:17;99120.38;;;22.26;90.47
2681;BME280;1350;42.134;24.708;2023-07-30T03:24:45;99123.25;;;22.24;90.86
2681;BME280;1350;42.134;24.708;2023-07-30T03:27:12;99124.78;;;22.27;91.08
2681;BME280;1350;42.134;24.708;2023-07-30T03:29:39;99130.22;;;22.43;90.03
2681;BME280;1350;42.134;24.708;2023-07-30T03:32:07;99125.66;;;22.35;91.06
2681;BME280;1350;42.134;24.708;2023-07-30T03:34:34;99128.13;;;22.21;94.10
2681;BME280;1350;42.134;24.708;2023-07-30T03:37:00;99132.88;;;22.27;92.80
2681;BME280;1350;42.134;24.708;2023-07-30T03:39:29;99125.38;;;22.54;91.41
2681;BME280;1350;42.134;24.708;2023-07-30T03:41:56;99132.00;;;22.68;89.40
2681;BME280;1350;42.134;24.708;2023-07-30T03:44:22;99134.22;;;23.04;86.27
2681;BME280;1350;42.134;24.708;2023-07-30T03:46:49;99130.09;;;23.57;81.73
2681;BME280;1350;42.134;24.708;2023-07-30T03:49:16;99139.25;;;24.10;77.11
2681;BME280;1350;42.134;24.708;2023-07-30T03:51:42;99132.03;;;24.33;73.15
2681;BME280;1350;42.134;24.708;2023-07-30T03:54:09;99129.00;;;24.28;71.79
2681;BME280;1350;42.134;24.708;2023-07-30T03:56:37;99137.75;;;24.08;71.83
2681;BME280;1350;42.134;24.708;2023-07-30T03:59:04;99138.25;;;24.03;71.76
2681;BME280;1350;42.134;24.708;2023-07-30T04:01:31;99142.34;;;23.99;72.76
2681;BME280;1350;42.134;24.708;2023-07-30T04:03:59;99144.34;;;24.05;72.01
2681;BME280;1350;42.134;24.708;2023-07-30T04:06:25;99145.78;;;24.24;70.69
2681;BME280;1350;42.134;24.708;2023-07-30T04:08:52;99145.72;;;24.40;69.90
2681;BME280;1350;42.134;24.708;2023-07-30T04:11:19;99145.34;;;24.73;68.73
2681;BME280;1350;42.134;24.708;2023-07-30T04:13:47;99142.28;;;24.99;67.83
2681;BME280;1350;42.134;24.708;2023-07-30T04:16:14;99145.16;;;24.98;67.06
2681;BME280;1350;42.134;24.708;2023-07-30T04:18:40;99145.22;;;24.89;67.67
2681;BME280;1350;42.134;24.708;2023-07-30T04:21:07;99147.88;;;24.98;67.13
2681;BME280;1350;42.134;24.708;2023-07-30T04:23:34;99151.09;;;25.01;66.58
2681;BME280;1350;42.134;24.708;2023-07-30T04:26:01;99164.41;;;25.11;67.67
2681;BME280;1350;42.134;24.708;2023-07-30T04:28:27;99162.69;;;25.32;67.07
2681;BME280;1350;42.134;24.708;2023-07-30T04:30:55;99163.78;;;25.46;66.58
2681;BME280;1350;42.134;24.708;2023-07-30T04:33:21;99163.53;;;25.55;66.22
2681;BME280;1350;42.134;24.708;2023-07-30T04:35:48;99162.00;;;25.53;66.59
2681;BME280;1350;42.134;24.708;2023-07-30T04:38:15;99152.84;;;25.68;66.32
2681;BME280;1350;42.134;24.708;2023-07-30T04:40:42;99155.81;;;25.59;66.93
2681;BME280;1350;42.134;24.708;2023-07-30T04:43:08;99164.75;;;25.82;66.08
2681;BME280;1350;42.134;24.708;2023-07-30T04:45:35;99166.56;;;26.04;65.19
2681;BME280;1350;42.134;24.708;2023-07-30T04:48:03;99167.47;;;26.11;65.25
2681;BME280;1350;42.134;24.708;2023-07-30T04:50:30;99167.19;;;25.91;65.85
2681;BME280;1350;42.134;24.708;2023-07-30T04:52:57;99161.78;;;26.06;65.96
2681;BME280;1350;42.134;24.708;2023-07-30T04:55:24;99168.28;;;26.55;64.22
2681;BME280;1350;42.134;24.708;2023-07-30T04:57:51;99162.63;;;26.71;63.76
2681;BME280;1350;42.134;24.708;2023-07-30T05:00:17;99156.75;;;26.89;63.20
2681;BME280;1350;42.134;24.708;2023-07-30T05:02:44;99154.94;;;27.17;62.23
2681;BME280;1350;42.134;24.708;2023-07-30T05:05:12;99161.25;;;27.38;61.50
2681;BME280;1350;42.134;24.708;2023-07-30T05:07:39;99167.41;;;27.81;60.43
2681;BME280;1350;42.134;24.708;2023-07-30T05:10:06;99156.88;;;27.99;59.10
2681;BME280;1350;42.134;24.708;2023-07-30T05:12:36;99162.63;;;28.17;58.33
2681;BME280;1350;42.134;24.708;2023-07-30T05:15:03;99161.06;;;28.42;57.31
2681;BME280;1350;42.134;24.708;2023-07-30T05:17:30;99161.88;;;28.36;56.84
2681;BME280;1350;42.134;24.708;2023-07-30T05:19:57;99164.72;;;28.56;56.07
2681;BME280;1350;42.134;24.708;2023-07-30T05:22:25;99161.97;;;28.56;56.24
2681;BME280;1350;42.134;24.708;2023-07-30T05:24:51;99169.03;;;29.04;54.26
2681;BME280;1350;42.134;24.708;2023-07-30T05:27:18;99164.91;;;29.47;52.84
2681;BME280;1350;42.134;24.708;2023-07-30T05:29:45;99160.09;;;29.69;52.57
2681;BME280;1350;42.134;24.708;2023-07-30T05:32:12;99171.78;;;30.08;51.46
2681;BME280;1350;42.134;24.708;2023-07-30T05:34:39;99174.03;;;30.37;50.53
2681;BME280;1350;42.134;24.708;2023-07-30T05:37:05;99169.22;;;30.33;49.84
2681;BME280;1350;42.134;24.708;2023-07-30T05:39:33;99181.78;;;30.53;49.23
2681;BME280;1350;42.134;24.708;2023-07-30T05:42:00;99171.59;;;30.73;48.55
2681;BME280;1350;42.134;24.708;2023-07-30T05:44:27;99169.47;;;31.13;47.57
2681;BME280;1350;42.134;24.708;2023-07-30T05:46:53;99164.91;;;31.38;47.11
2681;BME280;1350;42.134;24.708;2023-07-30T05:49:20;99171.09;;;31.52;46.66
2681;BME280;1350;42.134;24.708;2023-07-30T05:51:47;99177.81;;;31.56;45.56
2681;BME280;1350;42.134;24.708;2023-07-30T05:54:14;99176.34;;;31.53;45.38
2681;BME280;1350;42.134;24.708;2023-07-30T05:56:42;99179.94;;;30.91;46.67
2681;BME280;1350;42.134;24.708;2023-07-30T05:59:09;99177.13;;;31.36;46.32
2681;BME280;1350;42.134;24.708;2023-07-30T06:01:35;99177.06;;;31.67;45.68
2681;BME280;1350;42.134;24.708;2023-07-30T06:04:02;99179.72;;;32.04;45.36
2681;BME280;1350;42.134;24.708;2023-07-30T06:06:29;99177.75;;;31.87;45.59
2681;BME280;1350;42.134;24.708;2023-07-30T06:08:56;99173.88;;;31.94;45.37
2681;BME280;1350;42.134;24.708;2023-07-30T06:11:22;99166.00;;;32.22;45.32
2681;BME280;1350;42.134;24.708;2023-07-30T06:13:51;99167.59;;;32.48;44.70
2681;BME280;1350;42.134;24.708;2023-07-30T06:16:18;99163.94;;;32.72;43.70
2681;BME280;1350;42.134;24.708;2023-07-30T06:18:45;99169.81;;;33.05;43.09
2681;BME280;1350;42.134;24.708;2023-07-30T06:21:12;99167.13;;;33.28;43.25
2681;BME280;1350;42.134;24.708;2023-07-30T06:23:39;99163.38;;;33.11;43.16
2681;BME280;1350;42.134;24.708;2023-07-30T06:26:06;99158.25;;;33.44;42.78
2681;BME280;1350;42.134;24.708;2023-07-30T06:28:32;99164.25;;;33.87;41.90
2681;BME280;1350;42.134;24.708;2023-07-30T06:31:01;99162.75;;;34.54;40.96
2681;BME280;1350;42.134;24.708;2023-07-30T06:33:28;99159.41;;;34.52;40.75
2681;BME280;1350;42.134;24.708;2023-07-30T06:35:55;99160.63;;;34.45;41.36
2681;BME280;1350;42.134;24.708;2023-07-30T06:38:22;99157.88;;;34.84;40.29
2681;BME280;1350;42.134;24.708;2023-07-30T06:40:49;99153.81;;;35.31;39.63
2681;BME280;1350;42.134;24.708;2023-07-30T06:43:15;99150.81;;;35.66;38.88
2681;BME280;1350;42.134;24.708;2023-07-30T06:45:42;99152.31;;;36.07;38.00
2681;BME280;1350;42.134;24.708;2023-07-30T06:48:10;99151.34;;;35.80;38.06
2681;BME280;1350;42.134;24.708;2023-07-30T06:50:37;99147.09;;;34.83;39.26
2681;BME280;1350;42.134;24.708;2023-07-30T06:53:04;99146.34;;;35.15;38.67
2681;BME280;1350;42.134;24.708;2023-07-30T06:55:31;99141.22;;;35.68;37.99
2681;BME280;1350;42.134;24.708;2023-07-30T06:57:58;99142.38;;;35.72;37.80
2681;BME280;1350;42.134;24.708;2023-07-30T07:00:24;99133.88;;;35.57;38.08
2681;BME280;1350;42.134;24.708;2023-07-30T07:02:51;99134.44;;;35.76;37.90
2681;BME280;1350;42.134;24.708;2023-07-30T07:05:19;99127.66;;;36.22;36.64
2681;BME280;1350;42.134;24.708;2023-07-30T07:07:46;99123.91;;;35.40;37.49
2681;BME280;1350;42.134;24.708;2023-07-30T07:10:13;99124.75;;;35.73;36.70
2681;BME280;1350;42.134;24.708;2023-07-30T07:12:40;99114.63;;;34.45;37.81
2681;BME280;1350;42.134;24.708;2023-07-30T07:15:07;99129.41;;;34.95;37.67
2681;BME280;1350;42.134;24.708;2023-07-30T07:17:35;99112.66;;;33.83;38.89
2681;BME280;1350;42.134;24.708;2023-07-30T07:20:03;99116.00;;;34.19;38.95
2681;BME280;1350;42.134;24.708;2023-07-30T07:22:31;99114.06;;;34.20;38.84
2681;BME280;1350;42.134;24.708;2023-07-30T07:24:58;99112.53;;;34.24;39.27
2681;BME280;1350;42.134;24.708;2023-07-30T07:27:25;99113.94;;;34.66;38.65
2681;BME280;1350;42.134;24.708;2023-07-30T07:29:52;99113.06;;;34.77;38.29
2681;BME280;1350;42.134;24.708;2023-07-30T07:32:19;99115.69;;;34.84;38.03
2681;BME280;1350;42.134;24.708;2023-07-30T07:34:46;99103.28;;;34.30;38.32
2681;BME280;1350;42.134;24.708;2023-07-30T07:37:13;99106.88;;;34.42;39.15
2681;BME280;1350;42.134;24.708;2023-07-30T07:39:43;99113.72;;;34.40;38.88
2681;BME280;1350;42.134;24.708;2023-07-30T07:42:10;99109.97;;;35.02;37.89
2681;BME280;1350;42.134;24.708;2023-07-30T07:44:37;99111.78;;;35.57;37.46
2681;BME280;1350;42.134;24.708;2023-07-30T07:47:03;99108.44;;;35.39;36.78
2681;BME280;1350;42.134;24.708;2023-07-30T07:49:30;99102.66;;;35.24;37.46
2681;BME280;1350;42.134;24.708;2023-07-30T07:51:57;99098.63;;;36.19;36.26
2681;BME280;1350;42.134;24.708;2023-07-30T07:54:24;99106.25;;;36.50;35.56
2681;BME280;1350;42.134;24.708;2023-07-30T07:56:52;99103.75;;;36.49;34.98
2681;BME280;1350;42.134;24.708;2023-07-30T07:59:19;99097.94;;;36.98;34.67
2681;BME280;1350;42.134;24.708;2023-07-30T08:01:45;99098.34;;;37.12;34.53
2681;BME280;1350;42.134;24.708;2023-07-30T08:04:12;99097.00;;;37.14;34.11
2681;BME280;1350;42.134;24.708;2023-07-30T08:06:39;99087.47;;;37.32;33.61
2681;BME280;1350;42.134;24.708;2023-07-30T08:09:06;99092.31;;;37.20;33.83
2681;BME280;1350;42.134;24.708;2023-07-30T08:11:33;99097.72;;;37.05;33.66
2681;BME280;1350;42.134;24.708;2023-07-30T08:14:02;99089.94;;;36.75;34.43
2681;BME280;1350;42.134;24.708;2023-07-30T08:16:28;99090.69;;;36.92;34.13
2681;BME280;1350;42.134;24.708;2023-07-30T08:18:55;99080.00;;;37.01;34.19
2681;BME280;1350;42.134;24.708;2023-07-30T08:21:22;99077.66;;;37.19;33.87
2681;BME280;1350;42.134;24.708;2023-07-30T08:23:48;99080.31;;;37.36;34.03
2681;BME280;1350;42.134;24.708;2023-07-30T08:26:15;99076.50;;;37.15;33.89
2681;BME280;1350;42.134;24.708;2023-07-30T08:28:42;99075.34;;;37.06;33.88
2681;BME280;1350;42.134;24.708;2023-07-30T08:31:10;99071.66;;;36.48;34.66
2681;BME280;1350;42.134;24.708;2023-07-30T08:33:37;99063.38;;;36.74;34.36
2681;BME280;1350;42.134;24.708;2023-07-30T08:36:04;99064.00;;;37.35;33.87
2681;BME280;1350;42.134;24.708;2023-07-30T08:38:30;99050.63;;;37.63;33.02
2681;BME280;1350;42.134;24.708;2023-07-30T08:40:57;99052.34;;;37.33;32.94
2681;BME280;1350;42.134;24.708;2023-07-30T08:43:24;99046.00;;;36.52;33.52
2681;BME280;1350;42.134;24.708;2023-07-30T08:45:51;99032.34;;;36.19;34.44
2681;BME280;1350;42.134;24.708;2023-07-30T08:48:19;99041.94;;;35.57;34.55
2681;BME280;1350;42.134;24.708;2023-07-30T08:50:48;99035.53;;;36.11;34.44
2681;BME280;1350;42.134;24.708;2023-07-30T08:53:15;99029.72;;;36.77;33.05
2681;BME280;1350;42.134;24.708;2023-07-30T08:55:41;99028.75;;;36.67;33.52
2681;BME280;1350;42.134;24.708;2023-07-30T08:58:09;99026.13;;;37.45;32.96
2681;BME280;1350;42.134;24.708;2023-07-30T09:00:38;99019.16;;;37.74;32.60
2681;BME280;1350;42.134;24.708;2023-07-30T09:03:08;99019.56;;;38.08;32.37
2681;BME280;1350;42.134;24.708;2023-07-30T09:05:37;99011.72;;;37.85;32.10
2681;BME280;1350;42.134;24.708;2023-07-30T09:08:04;99008.09;;;37.79;32.13
2681;BME280;1350;42.134;24.708;2023-07-30T09:10:32;99013.69;;;37.43;32.70
2681;BME280;1350;42.134;24.708;2023-07-30T09:13:01;99011.78;;;37.48;32.42
2681;BME280;1350;42.134;24.708;2023-07-30T09:15:32;99011.34;;;37.66;32.90
2681;BME280;1350;42.134;24.708;2023-07-30T09:17:59;99001.88;;;37.62;32.96
2681;BME280;1350;42.134;24.708;2023-07-30T09:20:26;98995.03;;;37.70;33.03
2681;BME280;1350;42.134;24.708;2023-07-30T09:22:57;98985.56;;;38.17;32.32
2681;BME280;1350;42.134;24.708;2023-07-30T09:25:24;98991.47;;;38.41;32.23
2681;BME280;1350;42.134;24.708;2023-07-30T09:27:51;98987.91;;;38.55;32.50
2681;BME280;1350;42.134;24.708;2023-07-30T09:30:22;98976.63;;;37.49;32.98
2681;BME280;1350;42.134;24.708;2023-07-30T09:32:51;98984.50;;;37.67;32.88
2681;BME280;1350;42.134;24.708;2023-07-30T09:35:19;98976.56;;;37.39;32.98
2681;BME280;1350;42.134;24.708;2023-07-30T09:37:47;98976.81;;;37.37;33.06
2681;BME280;1350;42.134;24.708;2023-07-30T09:40:16;98962.25;;;37.57;32.76
2681;BME280;1350;42.134;24.708;2023-07-30T09:42:46;98962.94;;;37.27;32.69
2681;BME280;1350;42.134;24.708;2023-07-30T09:45:22;98957.16;;;36.17;34.03
2681;BME280;1350;42.134;24.708;2023-07-30T09:47:51;98952.75;;;36.69;32.75
2681;BME280;1350;42.134;24.708;2023-07-30T09:50:18;98943.34;;;37.02;33.53
2681;BME280;1350;42.134;24.708;2023-07-30T09:52:45;98945.25;;;37.85;32.33
2681;BME280;1350;42.134;24.708;2023-07-30T09:55:12;98945.22;;;37.75;31.95
2681;BME280;1350;42.134;24.708;2023-07-30T09:57:40;98936.00;;;37.17;32.95
2681;BME280;1350;42.134;24.708;2023-07-30T10:00:08;98937.78;;;36.97;32.42
2681;BME280;1350;42.134;24.708;2023-07-30T10:02:38;98936.22;;;37.11;32.82
2681;BME280;1350;42.134;24.708;2023-07-30T10:05:09;98932.56;;;37.42;31.85
2681;BME280;1350;42.134;24.708;2023-07-30T10:07:38;98926.09;;;37.78;31.70
2681;BME280;1350;42.134;24.708;2023-07-30T10:10:09;98926.94;;;37.69;32.08
2681;BME280;1350;42.134;24.708;2023-07-30T10:12:37;98915.19;;;37.10;32.68
2681;BME280;1350;42.134;24.708;2023-07-30T10:15:08;98913.25;;;36.74;33.66
2681;BME280;1350;42.134;24.708;2023-07-30T10:17:35;98909.13;;;36.45;33.05
2681;BME280;1350;42.134;24.708;2023-07-30T10:20:20;98903.69;;;36.86;32.61
2681;BME280;1350;42.134;24.708;2023-07-30T10:22:51;98898.56;;;37.05;32.94
2681;BME280;1350;42.134;24.708;2023-07-30T10:25:20;98889.31;;;36.26;33.71
2681;BME280;1350;42.134;24.708;2023-07-30T10:27:49;98893.16;;;36.25;34.23
2681;BME280;1350;42.134;24.708;2023-07-30T10:30:19;98899.09;;;36.65;33.66
2681;BME280;1350;42.134;24.708;2023-07-30T10:33:01;98883.94;;;37.56;32.85
2681;BME280;1350;42.134;24.708;2023-07-30T10:35:35;98884.16;;;36.98;32.86
2681;BME280;1350;42.134;24.708;2023-07-30T10:38:12;98887.94;;;36.87;32.42
2681;BME280;1350;42.134;24.708;2023-07-30T10:40:39;98883.19;;;36.51;33.36
2681;BME280;1350;42.134;24.708;2023-07-30T10:43:14;98884.03;;;36.51;33.02
2681;BME280;1350;42.134;24.708;2023-07-30T10:45:50;98869.06;;;35.46;34.56
2681;BME280;1350;42.134;24.708;2023-07-30T10:48:17;98867.47;;;36.25;33.20
2681;BME280;1350;42.134;24.708;2023-07-30T10:50:45;98868.25;;;35.94;33.76
2681;BME280;1350;42.134;24.708;2023-07-30T10:53:14;98866.88;;;36.44;33.28
2681;BME280;1350;42.134;24.708;2023-07-30T10:55:41;98865.47;;;36.78;33.39
2681;BME280;1350;42.134;24.708;2023-07-30T10:58:08;98860.34;;;36.92;32.52
2681;BME280;1350;42.134;24.708;2023-07-30T11:00:35;98859.69;;;35.90;33.93
2681;BME280;1350;42.134;24.708;2023-07-30T11:03:03;98861.38;;;35.48;34.07
2681;BME280;1350;42.134;24.708;2023-07-30T11:05:30;98854.66;;;36.14;33.18
2681;BME280;1350;42.134;24.708;2023-07-30T11:07:57;98850.41;;;36.59;32.88
2681;BME280;1350;42.134;24.708;2023-07-30T11:10:23;98859.97;;;36.20;32.53
2681;BME280;1350;42.134;24.708;2023-07-30T11:12:50;98853.97;;;36.28;32.41
2681;BME280;1350;42.134;24.708;2023-07-30T11:15:17;98845.94;;;36.27;32.01
2681;BME280;1350;42.134;24.708;2023-07-30T11:17:44;98842.22;;;35.63;33.34
2681;BME280;1350;42.134;24.708;2023-07-30T11:20:23;98852.47;;;35.89;32.88
2681;BME280;1350;42.134;24.708;2023-07-30T11:22:52;98848.59;;;35.42;32.24
2681;BME280;1350;42.134;24.708;2023-07-30T11:25:19;98845.72;;;35.53;32.98
2681;BME280;1350;42.134;24.708;2023-07-30T11:27:46;98830.56;;;36.04;31.79
2681;BME280;1350;42.134;24.708;2023-07-30T11:30:13;98833.75;;;36.91;31.33
2681;BME280;1350;42.134;24.708;2023-07-30T11:32:41;98830.91;;;36.76;31.75
2681;BME280;1350;42.134;24.708;2023-07-30T11:35:10;98824.25;;;36.40;31.34
2681;BME280;1350;42.134;24.708;2023-07-30T11:37:40;98822.97;;;36.53;31.77
2681;BME280;1350;42.134;24.708;2023-07-30T11:40:08;98825.22;;;35.71;32.25
2681;BME280;1350;42.134;24.708;2023-07-30T11:42:35;98809.47;;;35.93;32.16
2681;BME280;1350;42.134;24.708;2023-07-30T11:45:18;98806.94;;;36.50;31.72
2681;BME280;1350;42.134;24.708;2023-07-30T11:47:46;98805.13;;;37.17;31.27
2681;BME280;1350;42.134;24.708;2023-07-30T11:50:12;98801.19;;;37.60;30.57
2681;BME280;1350;42.134;24.708;2023-07-30T11:52:52;98806.09;;;37.48;29.91
2681;BME280;1350;42.134;24.708;2023-07-30T11:55:19;98793.19;;;37.78;29.49
2681;BME280;1350;42.134;24.708;2023-07-30T11:57:46;98795.13;;;37.73;28.54
2681;BME280;1350;42.134;24.708;2023-07-30T12:00:13;98788.41;;;37.59;28.43
2681;BME280;1350;42.134;24.708;2023-07-30T12:02:40;98783.75;;;36.56;29.35
2681;BME280;1350;42.134;24.708;2023-07-30T12:05:10;98782.09;;;37.01;29.14
2681;BME280;1350;42.134;24.708;2023-07-30T12:07:40;98773.25;;;36.99;29.26
2681;BME280;1350;42.134;24.708;2023-07-30T12:10:09;98765.13;;;37.40;29.54
2681;BME280;1350;42.134;24.708;2023-07-30T12:12:36;98768.22;;;37.63;28.94
2681;BME280;1350;42.134;24.708;2023-07-30T12:15:10;98759.13;;;37.73;28.79
2681;BME280;1350;42.134;24.708;2023-07-30T12:17:37;98751.94;;;37.00;29.63
2681;BME280;1350;42.134;24.708;2023-07-30T12:20:05;98744.97;;;36.41;29.52
2681;BME280;1350;42.134;24.708;2023-07-30T12:22:32;98748.69;;;36.25;29.83
2681;BME280;1350;42.134;24.708;2023-07-30T12:25:01;98739.75;;;36.44;29.30
2681;BME280;1350;42.134;24.708;2023-07-30T12:27:29;98735.44;;;36.63;29.60
2681;BME280;1350;42.134;24.708;2023-07-30T12:29:56;98737.41;;;36.73;29.51
2681;BME280;1350;42.134;24.708;2023-07-30T12:32:23;98734.44;;;36.79;29.19
2681;BME280;1350;42.134;24.708;2023-07-30T12:34:50;98737.72;;;36.30;29.89
2681;BME280;1350;42.134;24.708;2023-07-30T12:37:17;98731.84;;;36.68;29.26
2681;BME280;1350;42.134;24.708;2023-07-30T12:39:43;98731.19;;;36.97;29.16
2681;BME280;1350;42.134;24.708;2023-07-30T12:42:10;98727.13;;;37.20;28.91
2681;BME280;1350;42.134;24.708;2023-07-30T12:44:38;98736.19;;;37.00;28.18
2681;BME280;1350;42.134;24.708;2023-07-30T12:47:05;98725.63;;;36.09;28.96
2681;BME280;1350;42.134;24.708;2023-07-30T12:49:32;98718.81;;;36.22;28.75
2681;BME280;1350;42.134;24.708;2023-07-30T12:51:59;98719.53;;;36.39;28.75
2681;BME280;1350;42.134;24.708;2023-07-30T12:54:25;98714.09;;;37.10;28.98
2681;BME280;1350;42.134;24.708;2023-07-30T12:56:52;98715.38;;;37.60;28.33
2681;BME280;1350;42.134;24.708;2023-07-30T12:59:19;98716.50;;;37.89;28.03
2681;BME280;1350;42.134;24.708;2023-07-30T13:01:47;98706.53;;;37.88;27.51
2681;BME280;1350;42.134;24.708;2023-07-30T13:04:13;98702.19;;;37.05;27.68
2681;BME280;1350;42.134;24.708;2023-07-30T13:06:40;98702.22;;;37.20;27.11
2681;BME280;1350;42.134;24.708;2023-07-30T13:09:07;98703.75;;;37.63;27.42
2681;BME280;1350;42.134;24.708;2023-07-30T13:11:34;98698.53;;;36.89;26.95